Hayden, IN

03:13 AM EST ar Ionawr 29, 2015 (GMT -0500)
North Vernon - East | Change Station
CLOSE
Current Station
Personal Weather Stations
Location: North Vernon, IN
Elevation: 761 ft
Nearby Weather Stations

Elev 761 ft 39.01 °N, 85.59 °W | Updated 3 minutes ago

Cymylog Yn Rhannol
Cymylog Yn Rhannol
37.9 °F
Feels Like 33 °F
N
5.8
Gwynt Cyfnewidiol Gwynt from DDw

Heddiw
High -- | Low -- °F
--% Chance of Precip.
Yesterday
High -- | Low -- °F
Precip. -- mod
7:52 AM 6:00 PM
Waxing Gibbous, 72% visible
Gwasgedd 29.96 mod
Gwelededd 10.0 Milltiroedd
Clouds Cymylau Gwasgaredig 12000 ft
Oerfel Gwynt 33 °F
Gwlithbwynt 25 °F
Lleithder 60%
Rainfall 0.00 mod
Snow Depth Not available.
UV 0 out of 12
Pollen .30 out of 12
Air Quality Not available.
Flu Activity Not available.
METAR K1II 290755Z AUTO 17007KT 10SM SCT120 01/M07 A2996 RMK AO2

More Conditions Fewer Conditions

Gwasgedd 29.96 mod
Gwelededd 10.0 Milltiroedd
Clouds Cymylau Gwasgaredig 12000 ft
Oerfel Gwynt 33 °F
Gwlithbwynt 25 °F
Lleithder 60%
Rainfall 0.00 mod
Snow Depth Not available.
UV 0 out of 12
Pollen .30 out of 12
Air Quality Not available.
Flu Activity Not available.
METAR K1II 290755Z AUTO 17007KT 10SM SCT120 01/M07 A2996 RMK AO2

More Conditions Fewer Conditions

10-Day Weather Forecast

Almanac

Astronomy

Jan. 29, 2015 Rise Set
Actual Time
Civil Twilight
Nautical Twilight
Astronomical Twilight
Moon
Length Of Visible Light
Length of Day
Tomorrow will be .
, % of the Moon is Illuminated

Today's Extremes

State Highs State Lows

Community

WunderPhotos

Upload Photos

1,791,387 photos uploaded!

WunderBlogs® & News

Nearby

Air Quality

  Air Quality AQ Index Pollutant
Not available.

Snow Depth

Station Depth Elevation

Earthquake Activity

City Distance Mag. Time & Date
Minimum magnitude displayed is 2.5.

Coastal Water Temperatures

Lle Tymheredd

Nearby Weather Stations